Terminal Aerodrome Forecast
Issued by NWS Billings, MT

Home | Current Version | Previous Version | Graphics & Text | Print | Product List | Glossary On
Versions: 1 2 3 4 5 6 7 8 9 10 11 12 13 14 15 16 17 18 19 20 21 22 23 24 25 26 27 28 29 30 31 32 33 34 35 36 37 38 39 40 41 42 43
000
FTUS45 KBYZ 261527 AAB
TAFMLS
TAF AMD
KMLS 261527Z 2615/2712 00000KT 1SM -SN BR BKN004 OVC030
      TEMPO 2615/2617 2SM -SN BR SCT004 OVC025
     FM261700 34006KT 3SM -SN BR OVC012
     FM262000 04006KT 2SM -SN BR OVC012
     FM270300 12009KT P6SM VCSH BKN015=

USA.gov is the U.S. government's official web portal to all federal, state and local government web resources and services.